This is the latest recevied weather packets stored in our database for station/object N8QQQ. If no packets are shown the sender has not sent any weather packets the latest 10 day(s).
| Time | Temp. | Humidity | Pressure | Rain* | Wind** | Luminosity | Snow |
|---|---|---|---|---|---|---|---|
| 1777927261 | 16.67° C | 42% | 992.8 hPa | 0 mm | - | 406 W/m² | - |
| 1777926959 | 15.56° C | 43% | 992.7 hPa | 0 mm | - | 88 W/m² | - |
| 1777926656 | 16.67° C | 42% | 992.5 hPa | 0 mm | - | 94 W/m² | - |
| 1777926351 | 16.11° C | 41% | 992.5 hPa | 0 mm | - | 166 W/m² | - |
| 1777926049 | 16.11° C | 42% | 992.5 hPa | 0 mm | - | 104 W/m² | - |
| 1777925745 | 16.11° C | 41% | 992.5 hPa | 0 mm | - | 102 W/m² | - |
| 1777925443 | 16.11° C | 42% | 992.7 hPa | 0 mm | - | 130 W/m² | - |
| 1777925139 | 17.78° C | 35% | 992.4 hPa | 0 mm | - | 97 W/m² | - |
| 1777924837 | 17.78° C | 31% | 992.3 hPa | 0 mm | - | 265 W/m² | - |
| 1777924532 | 17.78° C | 31% | 992.3 hPa | 0 mm | - | 419 W/m² | - |
| 1777924229 | 17.22° C | 33% | 992.5 hPa | 0 mm | - | 407 W/m² | - |
| 1777923926 | 17.22° C | 37% | 992.4 hPa | 0 mm | - | 286 W/m² | - |
| 1777923621 | 17.22° C | 40% | 992.4 hPa | 0 mm | - | 139 W/m² | - |
| 1777923318 | 17.22° C | 40% | 992.3 hPa | 0 mm | - | 468 W/m² | - |
| 1777923017 | 17.22° C | 40% | 992.4 hPa | 0 mm | - | 402 W/m² | - |
| 1777922715 | 16.67° C | 39% | 992.3 hPa | 0 mm | - | 116 W/m² | - |
| 1777922413 | 16.67° C | 39% | 992.2 hPa | 0 mm | - | 151 W/m² | - |
| 1777922110 | 16.67° C | 40% | 992.2 hPa | 0 mm | - | 187 W/m² | - |
| 1777921806 | 16.67° C | 40% | 992.7 hPa | 0 mm | - | 261 W/m² | - |
| 1777921502 | 16.11° C | 41% | 992.7 hPa | 0 mm | - | 298 W/m² | - |
| 1777921198 | 16.11° C | 42% | 992.4 hPa | 0 mm | - | 353 W/m² | - |
| 1777920896 | 16.11° C | 43% | 992.7 hPa | 0 mm | - | 189 W/m² | - |
| 1777920592 | 15.56° C | 43% | 992.8 hPa | 0 mm | - | 238 W/m² | - |
| 1777920288 | 15.56° C | 45% | 992.5 hPa | 0 mm | - | 211 W/m² | - |
| 1777919983 | 16.11° C | 44% | 992.8 hPa | 0 mm | - | 219 W/m² | - |
* Rain latest hour (hover to see other rain measurements)
** Current wind speed in m/s (hover to see current wind gust speed)